Time;durP1;ratioP1;P1;durP2;ratioP2;P2;SDS_P1;SDS_P2;PMS_P1;PMS_P2;Temp;Humidity;BMP_temperature;BMP_pressure;BME280_temperature;BME280_humidity;BME280_pressure;Samples;Min_cycle;Max_cycle;Signal;HPM_P1;HPM_P2
2021/12/15 00:00:20;;;;;;;42.63;17.60;;;;;;;;;;5010097;28;20144;-73
2021/12/15 00:02:45;;;;;;;39.22;15.85;;;;;;;;;;5010392;28;20145;-73
2021/12/15 00:05:13;;;;;;;42.53;17.05;;;;;;;;;;5003910;28;20097;-73
2021/12/15 00:07:38;;;;;;;41.85;16.52;;;;;;;;;;5009705;28;20109;-72
2021/12/15 00:10:05;;;;;;;44.90;17.67;;;;;;;;;;5009962;28;20034;-72
2021/12/15 00:12:30;;;;;;;40.85;18.08;;;;;;;;;;5010062;28;20065;-73
2021/12/15 00:14:55;;;;;;;38.92;14.50;;;;;;;;;;5010330;28;20025;-73
2021/12/15 00:17:22;;;;;;;43.20;17.25;;;;;;;;;;4994209;28;20067;-71
2021/12/15 00:19:48;;;;;;;39.78;16.85;;;;;;;;;;5014026;28;20101;-73
2021/12/15 00:22:13;;;;;;;35.65;15.20;;;;;;;;;;5013997;28;20527;-73
2021/12/15 00:24:39;;;;;;;37.00;17.55;;;;;;;;;;5013945;28;20394;-73
2021/12/15 00:27:04;;;;;;;37.17;13.20;;;;;;;;;;5013950;28;20077;-73
2021/12/15 00:29:29;;;;;;;36.97;16.38;;;;;;;;;;5013919;28;20375;-73
2021/12/15 00:31:56;;;;;;;37.30;14.93;;;;;;;;;;5013477;28;20048;-73
2021/12/15 00:34:22;;;;;;;38.85;16.60;;;;;;;;;;5012519;28;20025;-72
2021/12/15 00:36:47;;;;;;;35.15;14.88;;;;;;;;;;5012901;28;20030;-71
2021/12/15 00:39:14;;;;;;;47.63;16.30;;;;;;;;;;5013504;28;20017;-73
2021/12/15 00:41:40;;;;;;;34.13;15.55;;;;;;;;;;5013350;28;20486;-69
2021/12/15 00:44:06;;;;;;;39.85;14.82;;;;;;;;;;5013318;28;20530;-73
2021/12/15 00:46:32;;;;;;;36.80;13.82;;;;;;;;;;5013650;28;20108;-71
2021/12/15 00:48:58;;;;;;;40.20;15.88;;;;;;;;;;5013325;28;20028;-72
2021/12/15 00:51:23;;;;;;;39.47;16.70;;;;;;;;;;5012909;28;20022;-72
2021/12/15 00:53:49;;;;;;;41.58;16.85;;;;;;;;;;5013286;28;20489;-73
2021/12/15 00:56:14;;;;;;;38.47;14.93;;;;;;;;;;5013505;28;20018;-71
2021/12/15 00:58:39;;;;;;;39.78;16.38;;;;;;;;;;5013254;28;20548;-73
2021/12/15 01:01:04;;;;;;;31.20;14.85;;;;;;;;;;5013112;28;20479;-72
2021/12/15 01:03:30;;;;;;;44.50;17.55;;;;;;;;;;5011683;28;20026;-73
2021/12/15 01:06:02;;;;;;;38.05;13.75;;;;;;;;;;5013077;28;20394;-73
2021/12/15 01:08:29;;;;;;;33.90;16.02;;;;;;;;;;5013099;28;20561;-73
2021/12/15 01:11:07;;;;;;;39.05;16.30;;;;;;;;;;5012912;28;20100;-72
2021/12/15 01:21:46;;;;;;;29.23;11.52;;;;;;;;;;5012308;28;20655;-73
2021/12/15 01:24:13;;;;;;;37.97;13.88;;;;;;;;;;5012390;28;20100;-71
2021/12/15 01:26:38;;;;;;;37.22;14.07;;;;;;;;;;5012878;28;20018;-73
2021/12/15 01:29:04;;;;;;;38.17;14.73;;;;;;;;;;5012482;28;20033;-72
2021/12/15 01:31:29;;;;;;;47.47;16.00;;;;;;;;;;4995201;28;20133;-71
2021/12/15 01:33:54;;;;;;;32.60;14.38;;;;;;;;;;5012675;28;20022;-73
2021/12/15 01:36:19;;;;;;;31.45;14.25;;;;;;;;;;5012397;28;20450;-73
2021/12/15 01:38:46;;;;;;;33.20;13.85;;;;;;;;;;4994795;28;20025;-73
2021/12/15 01:41:19;;;;;;;37.80;13.45;;;;;;;;;;5012300;28;20026;-72
2021/12/15 01:49:04;;;;;;;41.53;13.35;;;;;;;;;;5012741;28;20069;-70
2021/12/15 01:51:30;;;;;;;30.92;13.68;;;;;;;;;;5012121;28;20018;-73
2021/12/15 01:53:55;;;;;;;33.13;12.50;;;;;;;;;;5012395;28;20094;-73
2021/12/15 01:56:21;;;;;;;31.65;13.02;;;;;;;;;;5011934;28;20528;-73
2021/12/15 01:58:46;;;;;;;22.13;8.77;;;;;;;;;;5012254;28;20026;-72
2021/12/15 02:01:11;;;;;;;36.13;12.85;;;;;;;;;;5011823;28;20108;-73
2021/12/15 02:03:37;;;;;;;26.50;11.95;;;;;;;;;;5012124;28;20057;-72
2021/12/15 02:06:03;;;;;;;30.20;13.68;;;;;;;;;;5012143;28;20022;-72
2021/12/15 02:08:29;;;;;;;35.97;13.60;;;;;;;;;;5011819;28;20064;-73
2021/12/15 02:10:54;;;;;;;34.25;13.73;;;;;;;;;;5011434;28;20045;-73
2021/12/15 02:13:20;;;;;;;41.50;14.23;;;;;;;;;;5011562;28;20044;-73
2021/12/15 02:15:47;;;;;;;26.98;10.73;;;;;;;;;;5011962;28;20100;-73
2021/12/15 02:18:13;;;;;;;32.97;13.45;;;;;;;;;;5011685;28;20053;-72
2021/12/15 02:20:40;;;;;;;30.55;13.52;;;;;;;;;;5011613;28;20033;-72
2021/12/15 02:23:07;;;;;;;32.75;13.00;;;;;;;;;;5011563;28;20038;-71
2021/12/15 02:25:32;;;;;;;34.28;14.18;;;;;;;;;;5011675;28;20030;-73
2021/12/15 02:27:58;;;;;;;24.88;10.93;;;;;;;;;;5011307;28;20033;-73
2021/12/15 02:38:24;;;;;;;29.35;12.65;;;;;;;;;;5011401;28;20088;-73
2021/12/15 02:40:49;;;;;;;30.08;12.88;;;;;;;;;;5010438;28;20018;-73
2021/12/15 02:43:14;;;;;;;27.48;11.77;;;;;;;;;;5011195;28;20033;-73
2021/12/15 02:45:39;;;;;;;32.22;13.18;;;;;;;;;;5011345;28;20029;-72
2021/12/15 02:48:05;;;;;;;32.70;12.88;;;;;;;;;;5011186;28;20026;-72
2021/12/15 02:50:30;;;;;;;33.05;12.15;;;;;;;;;;5011050;28;20018;-72
2021/12/15 02:52:58;;;;;;;31.10;11.82;;;;;;;;;;5010890;28;20105;-72
2021/12/15 02:55:23;;;;;;;32.33;13.73;;;;;;;;;;5011250;28;20533;-72
2021/12/15 02:57:49;;;;;;;31.60;11.73;;;;;;;;;;5011011;28;20033;-72
2021/12/15 03:00:24;;;;;;;28.75;10.93;;;;;;;;;;5010350;28;20027;-70
2021/12/15 03:05:33;;;;;;;29.02;11.73;;;;;;;;;;5011111;28;20121;-72
2021/12/15 03:15:55;;;;;;;26.35;10.98;;;;;;;;;;5011096;28;20044;-73
2021/12/15 03:18:22;;;;;;;23.42;10.40;;;;;;;;;;5011220;28;20100;-73
2021/12/15 03:20:51;;;;;;;24.60;10.73;;;;;;;;;;5010656;28;20026;-73
2021/12/15 03:23:18;;;;;;;25.95;10.73;;;;;;;;;;5010793;28;20021;-73
2021/12/15 03:25:44;;;;;;;25.98;11.52;;;;;;;;;;5010794;28;20049;-72
2021/12/15 03:33:54;;;;;;;22.75;9.77;;;;;;;;;;5010845;28;20496;-72
2021/12/15 03:36:41;;;;;;;22.02;9.70;;;;;;;;;;5010906;28;20025;-72
2021/12/15 03:39:08;;;;;;;27.38;10.50;;;;;;;;;;5010807;28;20534;-72
2021/12/15 03:41:33;;;;;;;25.98;9.60;;;;;;;;;;5010536;28;20084;-73
2021/12/15 03:43:59;;;;;;;27.92;10.90;;;;;;;;;;5009507;28;20068;-72
2021/12/15 03:46:25;;;;;;;22.58;9.60;;;;;;;;;;5010026;28;20026;-71
2021/12/15 03:48:50;;;;;;;26.48;9.73;;;;;;;;;;5009277;28;20038;-71
2021/12/15 03:51:15;;;;;;;24.85;9.77;;;;;;;;;;5010034;28;20076;-73
2021/12/15 03:53:42;;;;;;;22.65;10.15;;;;;;;;;;5013637;28;20101;-73
2021/12/15 03:56:10;;;;;;;23.70;10.25;;;;;;;;;;5014559;28;20014;-73
2021/12/15 03:58:35;;;;;;;20.95;10.02;;;;;;;;;;5014613;28;20022;-72
2021/12/15 04:01:03;;;;;;;23.52;9.38;;;;;;;;;;5014360;28;20071;-71
2021/12/15 04:03:30;;;;;;;25.05;11.23;;;;;;;;;;5014010;28;20032;-71
2021/12/15 04:05:57;;;;;;;20.63;9.93;;;;;;;;;;5014296;28;20025;-72
2021/12/15 04:08:22;;;;;;;22.45;9.48;;;;;;;;;;5014338;28;20026;-73
2021/12/15 04:10:48;;;;;;;18.75;9.48;;;;;;;;;;5013833;28;20022;-72
2021/12/15 04:13:13;;;;;;;19.42;8.98;;;;;;;;;;5014185;28;20057;-72
2021/12/15 04:15:46;;;;;;;12.75;6.60;;;;;;;;;;5014201;28;20093;-73
2021/12/15 04:18:11;;;;;;;19.60;7.88;;;;;;;;;;5014161;28;20026;-72
2021/12/15 04:20:37;;;;;;;22.58;9.52;;;;;;;;;;5013488;28;20075;-73
2021/12/15 04:23:03;;;;;;;18.00;8.43;;;;;;;;;;5013789;28;20100;-73
2021/12/15 04:25:31;;;;;;;21.77;8.50;;;;;;;;;;5014110;28;20502;-73
2021/12/15 04:28:07;;;;;;;27.58;9.02;;;;;;;;;;5013812;28;20026;-73
2021/12/15 04:30:35;;;;;;;17.02;6.97;;;;;;;;;;5013714;28;20017;-73
2021/12/15 04:33:07;;;;;;;23.80;8.40;;;;;;;;;;5013594;28;20022;-72
2021/12/15 04:35:32;;;;;;;15.48;7.28;;;;;;;;;;5013768;28;20489;-73
2021/12/15 04:37:57;;;;;;;14.50;7.55;;;;;;;;;;5013117;28;20034;-70
2021/12/15 04:40:23;;;;;;;15.98;8.30;;;;;;;;;;5013119;28;20033;-73
2021/12/15 04:42:48;;;;;;;21.70;7.88;;;;;;;;;;5013477;28;20021;-73
2021/12/15 04:45:16;;;;;;;15.30;6.88;;;;;;;;;;5013648;28;20075;-73
2021/12/15 04:47:41;;;;;;;20.15;8.13;;;;;;;;;;5013532;28;20021;-73
2021/12/15 04:50:08;;;;;;;17.30;7.63;;;;;;;;;;5013132;28;20049;-71
2021/12/15 04:52:34;;;;;;;20.48;7.63;;;;;;;;;;5013286;28;20026;-73
2021/12/15 04:55:00;;;;;;;18.98;7.72;;;;;;;;;;5013411;28;20028;-71
2021/12/15 04:57:25;;;;;;;18.58;8.02;;;;;;;;;;5013298;28;20025;-72
2021/12/15 04:59:51;;;;;;;22.27;8.60;;;;;;;;;;5013326;28;20033;-73
2021/12/15 05:02:19;;;;;;;16.75;7.63;;;;;;;;;;5012887;28;20084;-73
2021/12/15 05:04:44;;;;;;;18.67;8.70;;;;;;;;;;5012925;28;20068;-73
2021/12/15 05:07:10;;;;;;;21.77;8.00;;;;;;;;;;5013255;28;20522;-73
2021/12/15 05:09:36;;;;;;;18.13;7.15;;;;;;;;;;5012881;28;20398;-73
2021/12/15 05:12:02;;;;;;;17.38;7.10;;;;;;;;;;5012845;28;20022;-73
2021/12/15 05:14:27;;;;;;;20.95;8.55;;;;;;;;;;5013099;28;20474;-72
2021/12/15 05:16:53;;;;;;;16.40;6.95;;;;;;;;;;5013101;28;20156;-73
2021/12/15 05:19:19;;;;;;;23.73;9.05;;;;;;;;;;5012901;28;20131;-73
2021/12/15 05:21:44;;;;;;;19.20;7.63;;;;;;;;;;5012761;28;20025;-73
2021/12/15 05:24:23;;;;;;;13.57;6.05;;;;;;;;;;4994773;28;20406;-71
2021/12/15 05:26:49;;;;;;;26.45;7.07;;;;;;;;;;5012971;28;20467;-73
2021/12/15 05:29:14;;;;;;;14.48;6.53;;;;;;;;;;5012964;28;20025;-73
2021/12/15 05:31:39;;;;;;;14.07;6.40;;;;;;;;;;5012685;28;20014;-73
2021/12/15 05:34:05;;;;;;;11.20;6.18;;;;;;;;;;5000033;28;20029;-73
2021/12/15 05:36:30;;;;;;;10.98;6.10;;;;;;;;;;5011958;28;20017;-71
2021/12/15 05:38:55;;;;;;;13.90;6.53;;;;;;;;;;5012287;28;20064;-73
2021/12/15 05:41:20;;;;;;;14.75;6.30;;;;;;;;;;5011495;28;20478;-72
2021/12/15 05:43:46;;;;;;;12.38;6.10;;;;;;;;;;5012444;28;20525;-73
2021/12/15 05:46:11;;;;;;;16.90;4.78;;;;;;;;;;5012324;28;20565;-72
2021/12/15 05:48:36;;;;;;;17.55;6.68;;;;;;;;;;5012283;28;20406;-71
2021/12/15 05:51:01;;;;;;;17.00;6.13;;;;;;;;;;5012056;28;20029;-73
2021/12/15 05:53:27;;;;;;;12.55;6.45;;;;;;;;;;5011914;28;20025;-73
2021/12/15 05:55:52;;;;;;;13.43;6.47;;;;;;;;;;5012379;28;20022;-73
2021/12/15 05:58:17;;;;;;;18.27;6.55;;;;;;;;;;5011839;28;20022;-73
2021/12/15 06:00:44;;;;;;;11.05;5.95;;;;;;;;;;5011956;28;20022;-72
2021/12/15 06:03:10;;;;;;;19.70;6.47;;;;;;;;;;5012138;28;20390;-72
2021/12/15 06:05:35;;;;;;;15.70;6.22;;;;;;;;;;5011896;28;20025;-73
2021/12/15 06:08:00;;;;;;;16.83;6.28;;;;;;;;;;5012084;28;20077;-71
2021/12/15 06:10:28;;;;;;;18.05;8.20;;;;;;;;;;5011661;28;20010;-73
2021/12/15 06:12:55;;;;;;;13.25;6.82;;;;;;;;;;5012185;28;20407;-70
2021/12/15 06:15:22;;;;;;;23.48;8.25;;;;;;;;;;5011303;28;20532;-73
2021/12/15 06:17:49;;;;;;;17.17;6.43;;;;;;;;;;5011853;28;20065;-72
2021/12/15 06:20:14;;;;;;;11.60;6.10;;;;;;;;;;5011224;28;20029;-72
2021/12/15 06:22:41;;;;;;;14.30;5.40;;;;;;;;;;5011658;28;20022;-71
2021/12/15 06:25:06;;;;;;;11.88;5.43;;;;;;;;;;5011751;28;20022;-71
2021/12/15 06:27:35;;;;;;;15.55;5.45;;;;;;;;;;5011556;28;20105;-70
2021/12/15 06:30:00;;;;;;;11.38;6.28;;;;;;;;;;5011515;28;20014;-71
2021/12/15 06:32:26;;;;;;;14.30;4.72;;;;;;;;;;5011348;28;20033;-72
2021/12/15 06:34:52;;;;;;;8.10;3.72;;;;;;;;;;5011385;28;20524;-71
2021/12/15 06:37:17;;;;;;;10.10;4.20;;;;;;;;;;5011369;28;20117;-71
2021/12/15 06:39:42;;;;;;;9.80;4.05;;;;;;;;;;5011407;28;20260;-72
2021/12/15 06:42:07;;;;;;;12.38;4.53;;;;;;;;;;5011031;28;20022;-72
2021/12/15 06:44:33;;;;;;;10.30;5.20;;;;;;;;;;5011138;28;20479;-72
2021/12/15 07:00:27;;;;;;;8.43;5.10;;;;;;;;;;5010877;28;20180;-72
2021/12/15 07:02:53;;;;;;;13.40;4.32;;;;;;;;;;5011053;28;20108;-73
2021/12/15 07:05:18;;;;;;;15.23;4.82;;;;;;;;;;5010769;28;20125;-72
2021/12/15 07:07:45;;;;;;;10.57;4.82;;;;;;;;;;4993246;28;20022;-72
2021/12/15 07:10:11;;;;;;;10.82;5.20;;;;;;;;;;5011696;28;20057;-73
2021/12/15 07:12:36;;;;;;;9.43;4.82;;;;;;;;;;5010841;28;20014;-72
2021/12/15 07:15:02;;;;;;;12.65;5.50;;;;;;;;;;5010959;28;20018;-72
2021/12/15 07:17:28;;;;;;;10.40;4.90;;;;;;;;;;4997977;28;20066;-72
2021/12/15 07:22:37;;;;;;;10.35;5.38;;;;;;;;;;5010688;28;20020;-72
2021/12/15 07:25:04;;;;;;;12.48;5.60;;;;;;;;;;5010864;28;20394;-72
2021/12/15 07:27:29;;;;;;;9.60;5.15;;;;;;;;;;5010686;28;20069;-71
2021/12/15 07:29:54;;;;;;;14.27;5.55;;;;;;;;;;5010705;28;20022;-73
2021/12/15 07:32:19;;;;;;;10.32;5.32;;;;;;;;;;5010660;28;20410;-71
2021/12/15 07:34:45;;;;;;;10.70;5.13;;;;;;;;;;5010284;28;20121;-72
2021/12/15 07:37:10;;;;;;;12.45;4.75;;;;;;;;;;5010775;28;20006;-71
2021/12/15 07:39:37;;;;;;;10.93;4.68;;;;;;;;;;5010634;28;20104;-72
2021/12/15 07:42:06;;;;;;;11.57;4.88;;;;;;;;;;5012527;28;20390;-69
2021/12/15 07:44:32;;;;;;;6.72;4.07;;;;;;;;;;5019475;28;20140;-73
2021/12/15 07:46:57;;;;;;;9.80;4.57;;;;;;;;;;5010768;28;20043;-72
2021/12/15 07:49:23;;;;;;;11.50;4.38;;;;;;;;;;5010674;28;20069;-72
2021/12/15 07:51:52;;;;;;;9.85;3.80;;;;;;;;;;5010119;28;20175;-72
2021/12/15 07:54:19;;;;;;;12.05;4.40;;;;;;;;;;5010488;28;20071;-72
2021/12/15 07:56:45;;;;;;;9.73;4.43;;;;;;;;;;5010320;28;20052;-72
2021/12/15 07:59:10;;;;;;;9.00;4.25;;;;;;;;;;5010538;28;20026;-72
2021/12/15 08:01:35;;;;;;;9.30;3.65;;;;;;;;;;5010130;28;20063;-72
2021/12/15 08:04:00;;;;;;;8.43;4.60;;;;;;;;;;5010468;28;20030;-72
2021/12/15 08:06:27;;;;;;;8.65;3.95;;;;;;;;;;5010555;28;20068;-72
2021/12/15 08:08:53;;;;;;;7.93;3.15;;;;;;;;;;5010283;28;20030;-71
2021/12/15 08:11:18;;;;;;;9.30;5.03;;;;;;;;;;5010248;28;20014;-72
2021/12/15 08:13:43;;;;;;;8.48;4.15;;;;;;;;;;5009719;28;20022;-71
2021/12/15 08:16:09;;;;;;;7.60;3.60;;;;;;;;;;5010464;28;20395;-71
2021/12/15 08:18:34;;;;;;;9.57;4.00;;;;;;;;;;5010278;28;20103;-72
2021/12/15 08:21:00;;;;;;;9.13;3.40;;;;;;;;;;5010183;28;20340;-71
2021/12/15 08:23:26;;;;;;;8.10;4.53;;;;;;;;;;5010315;28;20517;-72
2021/12/15 08:25:52;;;;;;;14.05;5.20;;;;;;;;;;5010457;28;20022;-73
2021/12/15 08:28:17;;;;;;;10.35;4.47;;;;;;;;;;5009940;28;20100;-72
2021/12/15 08:30:43;;;;;;;9.35;4.25;;;;;;;;;;5010102;28;20470;-72
2021/12/15 08:33:12;;;;;;;10.43;4.60;;;;;;;;;;5010226;28;20041;-72
2021/12/15 08:35:41;;;;;;;7.68;3.72;;;;;;;;;;5010153;28;20378;-72
2021/12/15 08:38:07;;;;;;;11.98;2.72;;;;;;;;;;5006814;28;20114;-73
2021/12/15 08:40:33;;;;;;;8.90;4.03;;;;;;;;;;4998289;28;20109;-72
2021/12/15 08:42:58;;;;;;;12.35;5.40;;;;;;;;;;4996533;28;20017;-72
2021/12/15 08:45:24;;;;;;;10.30;5.00;;;;;;;;;;5013588;28;20049;-72
2021/12/15 08:47:51;;;;;;;10.32;5.38;;;;;;;;;;5013373;28;20505;-71
2021/12/15 08:50:18;;;;;;;8.93;4.15;;;;;;;;;;5013356;28;20025;-72
2021/12/15 08:52:43;;;;;;;8.48;4.10;;;;;;;;;;5013294;28;20067;-72
2021/12/15 08:55:09;;;;;;;9.82;4.20;;;;;;;;;;5013491;28;20101;-71
2021/12/15 08:57:35;;;;;;;11.82;3.20;;;;;;;;;;5012949;28;20017;-71
2021/12/15 09:00:00;;;;;;;6.57;3.72;;;;;;;;;;5013343;28;20417;-72
2021/12/15 09:02:25;;;;;;;6.97;3.25;;;;;;;;;;5013059;28;20030;-72
2021/12/15 09:04:50;;;;;;;10.77;4.07;;;;;;;;;;5013215;28;20010;-72
2021/12/15 09:07:16;;;;;;;11.48;4.43;;;;;;;;;;5013250;28;20745;-72
2021/12/15 09:09:41;;;;;;;8.73;4.35;;;;;;;;;;5012625;28;20108;-71
2021/12/15 09:12:07;;;;;;;10.85;3.17;;;;;;;;;;5013139;28;20732;-72
2021/12/15 09:14:32;;;;;;;13.57;4.32;;;;;;;;;;5013270;28;20018;-72
2021/12/15 09:17:03;;;;;;;8.45;2.63;;;;;;;;;;5013053;28;20021;-69
2021/12/15 09:19:28;;;;;;;;;;;;;;;;;;5013409;28;20028;-71
2021/12/15 09:21:55;;;;;;;11.98;3.78;;;;;;;;;;5012454;28;19909;-70
2021/12/15 09:24:21;;;;;;;5.45;2.20;;;;;;;;;;5012709;28;20053;-70
2021/12/15 09:26:46;;;;;;;8.05;3.97;;;;;;;;;;5012691;28;20125;-71
2021/12/15 09:29:11;;;;;;;12.65;4.35;;;;;;;;;;5012684;28;20028;-72
2021/12/15 09:31:38;;;;;;;13.27;4.10;;;;;;;;;;5012395;28;20025;-71
2021/12/15 09:34:04;;;;;;;12.05;4.43;;;;;;;;;;5012708;28;20018;-72
2021/12/15 09:36:29;;;;;;;14.48;3.92;;;;;;;;;;5012672;28;20459;-71
2021/12/15 09:38:58;;;;;;;11.52;3.90;;;;;;;;;;5012543;28;20045;-72
2021/12/15 09:41:23;;;;;;;13.07;4.25;;;;;;;;;;5012332;28;20108;-72
2021/12/15 09:43:51;;;;;;;10.88;4.80;;;;;;;;;;5012426;28;20061;-72
2021/12/15 09:47:02;;;;;;;9.30;3.97;;;;;;;;;;5012517;28;20474;-70
2021/12/15 09:57:27;;;;;;;10.48;4.05;;;;;;;;;;5012533;28;20374;-70
2021/12/15 10:02:46;;;;;;;10.20;3.78;;;;;;;;;;5012152;28;20053;-72
2021/12/15 10:05:28;;;;;;;7.55;4.18;;;;;;;;;;5012038;28;20045;-71
2021/12/15 10:18:38;;;;;;;7.57;4.10;;;;;;;;;;5011847;28;20488;-70
2021/12/15 10:21:04;;;;;;;8.65;3.97;;;;;;;;;;5011842;28;20029;-72
2021/12/15 10:23:36;;;;;;;8.82;4.05;;;;;;;;;;5011593;28;20026;-71
2021/12/15 10:26:02;;;;;;;9.30;4.72;;;;;;;;;;4994278;28;20021;-71
2021/12/15 10:28:29;;;;;;;11.13;4.70;;;;;;;;;;5011399;28;20032;-71
2021/12/15 10:31:05;;;;;;;12.07;4.22;;;;;;;;;;5011319;28;20025;-71
2021/12/15 10:33:41;;;;;;;12.45;5.07;;;;;;;;;;5011474;28;20014;-71
2021/12/15 10:36:09;;;;;;;12.65;4.38;;;;;;;;;;5011846;28;20461;-72
2021/12/15 10:38:41;;;;;;;10.60;4.75;;;;;;;;;;5011501;28;20479;-70
2021/12/15 10:41:07;;;;;;;9.50;5.15;;;;;;;;;;5011089;28;20469;-70
2021/12/15 10:43:34;;;;;;;11.13;4.00;;;;;;;;;;5011582;28;20045;-72
2021/12/15 10:46:04;;;;;;;9.35;4.10;;;;;;;;;;5011433;28;20033;-72
2021/12/15 10:48:36;;;;;;;;;;;;;;;;;;5011751;28;20026;-72
2021/12/15 10:51:16;;;;;;;15.93;4.63;;;;;;;;;;5011011;28;20326;-72
2021/12/15 10:53:42;;;;;;;7.40;3.75;;;;;;;;;;5010749;28;20017;-72
2021/12/15 10:56:18;;;;;;;10.32;4.22;;;;;;;;;;5011173;28;20038;-71
2021/12/15 10:58:46;;;;;;;9.02;3.80;;;;;;;;;;5011166;28;20065;-72
2021/12/15 11:01:30;;;;;;;7.03;3.35;;;;;;;;;;5010729;28;20498;-72
2021/12/15 11:03:55;;;;;;;5.70;2.95;;;;;;;;;;5011023;28;20030;-72
2021/12/15 11:06:27;;;;;;;8.18;2.40;;;;;;;;;;5010840;28;20064;-71
2021/12/15 11:09:11;;;;;;;6.32;3.90;;;;;;;;;;5010850;28;20411;-72
2021/12/15 11:11:36;;;;;;;8.23;3.65;;;;;;;;;;5010488;28;20088;-72
2021/12/15 11:14:21;;;;;;;8.73;4.00;;;;;;;;;;5010891;28;20057;-70
2021/12/15 11:16:46;;;;;;;7.13;3.00;;;;;;;;;;5010871;28;20025;-70
2021/12/15 11:19:31;;;;;;;11.45;3.03;;;;;;;;;;5010966;28;20026;-71
2021/12/15 11:21:56;;;;;;;4.65;2.78;;;;;;;;;;5010343;28;20036;-72
2021/12/15 11:24:23;;;;;;;10.15;3.78;;;;;;;;;;5010506;28;20030;-72
2021/12/15 11:27:08;;;;;;;5.78;3.17;;;;;;;;;;5010881;28;20057;-68
2021/12/15 11:29:40;;;;;;;15.07;3.15;;;;;;;;;;5010533;28;20036;-70
2021/12/15 11:32:05;;;;;;;7.22;3.17;;;;;;;;;;5010651;28;20026;-71
2021/12/15 11:34:31;;;;;;;13.77;3.63;;;;;;;;;;5010678;28;20022;-72
2021/12/15 11:36:56;;;;;;;7.00;3.47;;;;;;;;;;5010749;28;20014;-70
2021/12/15 11:39:24;;;;;;;7.30;3.50;;;;;;;;;;5010348;28;20025;-70
2021/12/15 11:41:52;;;;;;;8.52;3.30;;;;;;;;;;5010289;28;20021;-70
2021/12/15 11:44:18;;;;;;;11.82;3.67;;;;;;;;;;5010633;28;20018;-70
2021/12/15 11:47:04;;;;;;;8.98;3.85;;;;;;;;;;5010513;28;20022;-70
2021/12/15 11:49:31;;;;;;;8.15;3.80;;;;;;;;;;5005389;28;20014;-70
2021/12/15 11:52:01;;;;;;;6.82;3.70;;;;;;;;;;4990721;28;20081;-71
2021/12/15 11:54:34;;;;;;;7.95;2.85;;;;;;;;;;5004542;28;20022;-70
2021/12/15 11:57:03;;;;;;;8.60;3.65;;;;;;;;;;5010501;28;20117;-70
2021/12/15 11:59:29;;;;;;;9.98;4.22;;;;;;;;;;5010461;28;20021;-70
2021/12/15 12:01:58;;;;;;;7.45;4.05;;;;;;;;;;5009718;28;20034;-70
2021/12/15 12:04:26;;;;;;;8.30;4.20;;;;;;;;;;5010513;28;20050;-70
2021/12/15 12:06:53;;;;;;;13.23;4.32;;;;;;;;;;5010550;28;20132;-70
2021/12/15 12:09:20;;;;;;;10.70;3.85;;;;;;;;;;5010520;28;20080;-70
2021/12/15 12:11:50;;;;;;;11.57;3.88;;;;;;;;;;5010387;28;20075;-70
2021/12/15 12:14:37;;;;;;;8.48;4.63;;;;;;;;;;5013009;28;20633;-70
2021/12/15 12:17:03;;;;;;;10.18;4.15;;;;;;;;;;5014009;28;20040;-69
2021/12/15 12:19:28;;;;;;;6.78;4.10;;;;;;;;;;5014041;28;20494;-69
2021/12/15 12:21:53;;;;;;;9.95;4.70;;;;;;;;;;5013660;28;20018;-70
2021/12/15 12:24:18;;;;;;;7.75;4.13;;;;;;;;;;5013913;28;20057;-70
2021/12/15 12:26:44;;;;;;;9.73;3.58;;;;;;;;;;5013733;28;20433;-70
2021/12/15 12:29:10;;;;;;;8.20;3.35;;;;;;;;;;5013785;28;20544;-70
2021/12/15 12:31:36;;;;;;;7.57;3.65;;;;;;;;;;5013211;28;20057;-70
2021/12/15 12:34:01;;;;;;;7.13;3.42;;;;;;;;;;5013833;28;20085;-71
2021/12/15 12:36:31;;;;;;;8.57;3.15;;;;;;;;;;5013486;28;20030;-70
2021/12/15 12:38:58;;;;;;;7.13;3.50;;;;;;;;;;5013487;28;20029;-70
2021/12/15 12:41:25;;;;;;;12.65;4.25;;;;;;;;;;5013401;28;20041;-70
2021/12/15 12:43:54;;;;;;;11.90;3.85;;;;;;;;;;5013432;28;20022;-70
2021/12/15 12:46:30;;;;;;;10.10;4.00;;;;;;;;;;5013609;28;20052;-70
2021/12/15 12:49:21;;;;;;;6.93;4.10;;;;;;;;;;5013376;28;20041;-69
2021/12/15 13:00:08;;;;;;;10.02;4.57;;;;;;;;;;4993911;28;20036;-68
2021/12/15 13:05:00;;;;;;;10.07;4.90;;;;;;;;;;4993605;28;20027;-70
2021/12/15 13:07:46;;;;;;;7.93;3.83;;;;;;;;;;5004280;28;20033;-70
2021/12/15 13:10:11;;;;;;;10.82;4.20;;;;;;;;;;5012838;28;20030;-70
2021/12/15 13:12:39;;;;;;;8.57;4.45;;;;;;;;;;5013001;28;20382;-70
2021/12/15 13:15:07;;;;;;;10.55;4.55;;;;;;;;;;5012978;28;20014;-70
2021/12/15 13:17:36;;;;;;;10.30;4.93;;;;;;;;;;5013072;28;20048;-70
2021/12/15 13:20:02;;;;;;;9.35;4.32;;;;;;;;;;5012641;28;20022;-70
2021/12/15 13:30:48;;;;;;;17.52;7.47;;;;;;;;;;5012440;28;20096;-70
2021/12/15 13:33:42;;;;;;;13.55;7.10;;;;;;;;;;5012518;28;20169;-70
2021/12/15 13:36:07;;;;;;;13.23;7.03;;;;;;;;;;5012481;28;20026;-71
2021/12/15 13:38:32;;;;;;;15.20;8.43;;;;;;;;;;5012375;28;20483;-72
2021/12/15 13:40:59;;;;;;;21.25;9.50;;;;;;;;;;5012209;28;20261;-70
2021/12/15 13:43:43;;;;;;;15.93;8.60;;;;;;;;;;5012557;28;20021;-71
2021/12/15 13:46:21;;;;;;;20.67;10.70;;;;;;;;;;5012500;28;20041;-70
2021/12/15 13:48:56;;;;;;;26.58;10.93;;;;;;;;;;5012345;28;20506;-70
2021/12/15 13:51:40;;;;;;;17.88;11.13;;;;;;;;;;5012318;28;20033;-70
2021/12/15 13:54:19;;;;;;;16.30;10.07;;;;;;;;;;5011742;28;20040;-70
2021/12/15 13:56:49;;;;;;;21.27;11.38;;;;;;;;;;5012688;28;20386;-70
2021/12/15 13:59:32;;;;;;;20.80;10.88;;;;;;;;;;5012367;28;20479;-70
2021/12/15 14:02:10;;;;;;;14.93;9.95;;;;;;;;;;5011873;28;20030;-70
2021/12/15 14:04:42;;;;;;;15.13;9.02;;;;;;;;;;5012067;28;20018;-70
2021/12/15 14:07:26;;;;;;;14.10;8.85;;;;;;;;;;5010641;28;20382;-70
2021/12/15 14:09:51;;;;;;;17.50;10.60;;;;;;;;;;5020345;28;20112;-71
2021/12/15 14:12:36;;;;;;;20.25;10.07;;;;;;;;;;5024955;28;20097;-73
2021/12/15 14:15:02;;;;;;;22.02;10.98;;;;;;;;;;5000053;28;20019;-70
2021/12/15 14:17:27;;;;;;;21.63;12.25;;;;;;;;;;4991918;28;20450;-71
2021/12/15 14:19:53;;;;;;;20.63;11.93;;;;;;;;;;5006156;28;20021;-72
2021/12/15 14:22:19;;;;;;;22.17;12.30;;;;;;;;;;5011096;28;20021;-69
2021/12/15 14:24:44;;;;;;;20.52;11.82;;;;;;;;;;5011691;28;20033;-70
2021/12/15 14:27:10;;;;;;;22.98;12.07;;;;;;;;;;5011251;28;20026;-74
2021/12/15 14:29:35;;;;;;;23.35;13.82;;;;;;;;;;5011246;28;20112;-70
2021/12/15 14:32:01;;;;;;;27.90;13.38;;;;;;;;;;5010885;28;20101;-70
2021/12/15 14:34:29;;;;;;;27.33;14.93;;;;;;;;;;5007898;28;20018;-70
2021/12/15 14:36:55;;;;;;;24.80;13.35;;;;;;;;;;5010358;28;20525;-72
2021/12/15 14:39:22;;;;;;;24.42;13.90;;;;;;;;;;4993836;28;20030;-70
2021/12/15 14:41:50;;;;;;;30.02;16.40;;;;;;;;;;4998688;28;20029;-71
2021/12/15 14:44:17;;;;;;;27.15;14.27;;;;;;;;;;5010937;28;20030;-71
2021/12/15 14:46:47;;;;;;;27.58;15.20;;;;;;;;;;5011297;28;20489;-72
2021/12/15 14:49:30;;;;;;;25.73;14.18;;;;;;;;;;5011284;28;20379;-70
2021/12/15 14:52:00;;;;;;;26.85;14.25;;;;;;;;;;5009793;28;20518;-70
2021/12/15 14:54:26;;;;;;;24.38;13.80;;;;;;;;;;5002514;28;20154;-71
2021/12/15 14:56:56;;;;;;;29.70;15.82;;;;;;;;;;4995190;28;20029;-71
2021/12/15 14:59:27;;;;;;;29.10;14.32;;;;;;;;;;5011381;28;20029;-72
2021/12/15 15:01:54;;;;;;;30.40;15.98;;;;;;;;;;5010947;28;20382;-71
2021/12/15 15:04:22;;;;;;;30.60;15.07;;;;;;;;;;5011337;28;20525;-72
2021/12/15 15:06:47;;;;;;;28.17;15.93;;;;;;;;;;5011203;28;20013;-70
2021/12/15 15:09:15;;;;;;;27.02;16.60;;;;;;;;;;5011266;28;20431;-70
2021/12/15 15:11:48;;;;;;;30.05;16.05;;;;;;;;;;5011146;28;20018;-73
2021/12/15 15:14:13;;;;;;;30.25;16.38;;;;;;;;;;5017341;28;20018;-71
2021/12/15 15:16:39;;;;;;;29.77;16.27;;;;;;;;;;5025059;28;20017;-71
2021/12/15 15:19:17;;;;;;;31.60;15.27;;;;;;;;;;5027264;28;20044;-71
2021/12/15 15:21:43;;;;;;;36.97;16.27;;;;;;;;;;5010786;28;20026;-71
2021/12/15 15:24:08;;;;;;;31.75;16.42;;;;;;;;;;5010609;28;20033;-71
2021/12/15 15:26:34;;;;;;;33.97;17.50;;;;;;;;;;5010708;28;20037;-70
2021/12/15 15:28:59;;;;;;;36.53;16.50;;;;;;;;;;5010522;28;20117;-71
2021/12/15 15:31:26;;;;;;;38.00;18.48;;;;;;;;;;5010662;28;20105;-71
2021/12/15 15:33:51;;;;;;;34.80;17.65;;;;;;;;;;5010666;28;20022;-70
2021/12/15 15:36:19;;;;;;;35.13;19.45;;;;;;;;;;5010684;28;20101;-71
2021/12/15 15:38:49;;;;;;;34.88;19.67;;;;;;;;;;5010382;28;20026;-71
2021/12/15 15:41:22;;;;;;;38.28;19.55;;;;;;;;;;5006783;28;20040;-71
2021/12/15 15:43:49;;;;;;;32.05;16.45;;;;;;;;;;5002423;28;20022;-71
2021/12/15 15:46:19;;;;;;;32.25;17.63;;;;;;;;;;5010791;28;20022;-71
2021/12/15 15:48:45;;;;;;;36.15;17.27;;;;;;;;;;5020118;28;20025;-71
2021/12/15 15:51:12;;;;;;;35.15;17.50;;;;;;;;;;5019125;28;20018;-71
2021/12/15 15:53:38;;;;;;;35.20;18.80;;;;;;;;;;5034413;28;20013;-71
2021/12/15 15:56:13;;;;;;;32.45;17.50;;;;;;;;;;5016924;28;20509;-70
2021/12/15 15:58:39;;;;;;;37.75;17.38;;;;;;;;;;5014733;28;20472;-71
2021/12/15 16:01:05;;;;;;;30.77;16.80;;;;;;;;;;5014414;28;20061;-71
2021/12/15 16:03:31;;;;;;;31.25;17.30;;;;;;;;;;5013416;28;20029;-71
2021/12/15 16:06:01;;;;;;;32.83;17.90;;;;;;;;;;5014010;28;20057;-71